Time;durP1;ratioP1;P1;durP2;ratioP2;P2;SDS_P1;SDS_P2;PMS_P1;PMS_P2;Temp;Humidity;BMP_temperature;BMP_pressure;BME280_temperature;BME280_humidity;BME280_pressure;Samples;Min_cycle;Max_cycle;Signal;HPM_P1;HPM_P2
2023/09/21 00:02:35;;;;;;;4.03;1.30;;;24.10;78.30;;;;;;10487169;28;20041;-35
2023/09/21 00:07:37;;;;;;;2.53;1.17;;;24.20;77.60;;;;;;10475536;28;20478;-34
2023/09/21 00:12:40;;;;;;;2.80;1.00;;;24.30;78.00;;;;;;10489441;28;20072;-42
2023/09/21 00:17:43;;;;;;;3.00;1.30;;;24.20;78.20;;;;;;10480532;28;20044;-35
2023/09/21 00:22:45;;;;;;;2.38;1.20;;;24.10;78.60;;;;;;10496821;28;20136;-33
2023/09/21 00:27:47;;;;;;;2.90;0.98;;;24.20;77.90;;;;;;10488230;28;20044;-34
2023/09/21 00:32:50;;;;;;;;;;;24.30;77.60;;;;;;10481965;28;20111;-36
2023/09/21 00:37:52;;;;;;;2.40;1.25;;;24.20;77.80;;;;;;10489836;28;20019;-34
2023/09/21 00:42:53;;;;;;;;;;;24.10;78.80;;;;;;10484129;28;20117;-33
2023/09/21 00:47:56;;;;;;;2.85;1.27;;;24.00;79.40;;;;;;10476696;28;19951;-35
2023/09/21 00:52:58;;;;;;;2.13;1.27;;;24.10;79.00;;;;;;10479123;28;20056;-35
2023/09/21 00:58:03;;;;;;;1.50;1.02;;;24.10;78.80;;;;;;10488859;28;20155;-37
2023/09/21 01:03:11;;;;;;;8.02;1.48;;;23.80;81.50;;;;;;10488259;28;20831;-33
2023/09/21 01:08:18;;;;;;;1.88;1.00;;;23.40;84.10;;;;;;10473077;28;20045;-34
2023/09/21 01:13:20;;;;;;;2.10;1.20;;;23.70;84.10;;;;;;10475437;28;20142;-38
2023/09/21 01:18:23;;;;;;;2.40;1.30;;;23.70;83.00;;;;;;10478863;28;20055;-40
2023/09/21 01:23:35;;;;;;;2.80;1.05;;;23.70;83.90;;;;;;10491029;28;20472;-39
2023/09/21 01:28:37;;;;;;;6.47;1.23;;;23.60;85.40;;;;;;10483655;28;20053;-36
2023/09/21 01:33:39;;;;;;;2.20;1.30;;;22.90;90.70;;;;;;10484243;28;20037;-37
2023/09/21 01:38:45;;;;;;;3.08;1.40;;;22.60;93.00;;;;;;10489480;28;20110;-30
2023/09/21 01:43:47;;;;;;;4.13;1.85;;;21.60;98.50;;;;;;10476281;28;20049;-36
2023/09/21 01:48:51;;;;;;;;;;;21.60;99.80;;;;;;10479322;28;20071;-35
2023/09/21 01:53:55;;;;;;;2.80;1.17;;;21.50;99.20;;;;;;10469077;28;19928;-34
2023/09/21 01:58:58;;;;;;;7.88;2.03;;;21.70;99.80;;;;;;10480039;28;20099;-34
2023/09/21 02:03:59;;;;;;;3.33;1.40;;;21.50;99.90;;;;;;10481146;28;20045;-32
2023/09/21 02:09:05;;;;;;;4.45;1.15;;;21.60;99.60;;;;;;10471893;28;20509;-32
2023/09/21 02:14:08;;;;;;;2.92;1.48;;;22.70;95.00;;;;;;10479387;28;20094;-33
2023/09/21 02:19:10;;;;;;;1.83;1.23;;;22.30;97.60;;;;;;10476739;28;20145;-33
2023/09/21 02:24:13;;;;;;;5.15;1.50;;;22.30;96.50;;;;;;10482698;28;20051;-34
2023/09/21 02:29:17;;;;;;;4.00;1.10;;;23.20;95.10;;;;;;10490032;28;20283;-34
2023/09/21 02:34:19;;;;;;;2.50;1.17;;;22.60;95.10;;;;;;10483674;28;20044;-34
2023/09/21 02:39:22;;;;;;;9.43;1.55;;;23.30;92.30;;;;;;10487271;28;20167;-33
2023/09/21 02:44:24;;;;;;;3.33;1.00;;;22.70;94.90;;;;;;10483636;28;20131;-35
2023/09/21 02:49:26;;;;;;;;;;;22.70;94.60;;;;;;10463151;28;20053;-33
2023/09/21 02:54:30;;;;;;;3.50;1.20;;;22.30;96.50;;;;;;10471334;28;20015;-32
2023/09/21 03:15:29;;;;;;;1.08;0.90;;;22.80;94.70;;;;;;10474599;27;2099600;-32
2023/09/21 03:20:34;;;;;;;1.15;0.80;;;23.10;93.80;;;;;;10554582;28;20480;-33
2023/09/21 03:25:40;;;;;;;4.20;1.05;;;22.70;94.60;;;;;;10555250;28;20408;-35
2023/09/21 03:30:45;;;;;;;2.13;0.98;;;21.90;98.60;;;;;;10562586;28;20123;-32
2023/09/21 03:35:47;;;;;;;3.03;1.63;;;22.10;97.30;;;;;;10550718;28;20101;-32
2023/09/21 03:40:50;;;;;;;3.30;1.00;;;23.10;93.10;;;;;;10545354;28;20099;-37
2023/09/21 03:45:53;;;;;;;3.72;1.63;;;23.60;91.20;;;;;;10563483;28;20117;-33
2023/09/21 03:50:55;;;;;;;1.30;0.75;;;23.60;91.30;;;;;;10550719;28;20151;-33
2023/09/21 03:55:57;;;;;;;1.83;0.90;;;23.20;92.50;;;;;;10557693;28;20063;-37
2023/09/21 04:01:04;;;;;;;3.45;0.88;;;23.70;90.30;;;;;;10564894;28;20048;-35
2023/09/21 04:06:07;;;;;;;1.00;0.70;;;23.80;90.10;;;;;;10554674;28;20729;-33
2023/09/21 04:11:09;;;;;;;0.80;0.73;;;23.80;89.70;;;;;;10545717;28;20555;-33
2023/09/21 04:16:12;;;;;;;;;;;23.90;90.10;;;;;;10550033;28;20485;-33
2023/09/21 04:21:14;;;;;;;5.00;1.08;;;23.80;89.50;;;;;;10543647;28;20002;-36
2023/09/21 04:26:16;;;;;;;;;;;23.10;93.90;;;;;;10528373;28;20082;-36
2023/09/21 04:31:19;;;;;;;3.43;1.10;;;22.80;94.20;;;;;;10521815;28;20296;-34
2023/09/21 04:36:21;;;;;;;0.93;0.85;;;23.40;92.80;;;;;;10533453;28;20955;-38
2023/09/21 04:41:23;;;;;;;4.07;1.40;;;22.60;95.10;;;;;;10530387;28;20063;-37
2023/09/21 04:46:26;;;;;;;1.15;0.80;;;21.80;99.10;;;;;;10521561;28;20425;-31
2023/09/21 04:51:28;;;;;;;1.67;0.93;;;20.90;99.90;;;;;;10517103;28;20694;-32
2023/09/21 04:56:30;;;;;;;1.25;0.60;;;22.50;97.00;;;;;;10518109;28;20110;-34
2023/09/21 05:01:33;;;;;;;1.35;0.65;;;22.40;96.80;;;;;;10517894;28;20117;-36
2023/09/21 05:06:35;;;;;;;3.80;0.75;;;21.20;99.90;;;;;;10506219;28;20101;-35
2023/09/21 05:11:39;;;;;;;0.80;0.60;;;22.10;98.00;;;;;;10512499;28;20589;-33
2023/09/21 05:16:43;;;;;;;1.88;0.82;;;23.00;93.40;;;;;;10512443;28;20040;-33
2023/09/21 05:21:45;;;;;;;1.33;0.70;;;22.90;93.80;;;;;;10510409;28;20048;-36
2023/09/21 05:26:46;;;;;;;3.42;0.60;;;22.50;93.50;;;;;;10514883;28;20576;-38
2023/09/21 05:31:50;;;;;;;1.85;0.70;;;23.00;92.50;;;;;;10511184;28;20102;-34
2023/09/21 05:36:54;;;;;;;2.95;0.90;;;23.70;90.60;;;;;;10506009;28;20047;-42
2023/09/21 05:41:57;;;;;;;4.38;0.80;;;23.70;89.10;;;;;;10520797;28;20040;-34
2023/09/21 05:47:00;;;;;;;2.20;0.60;;;24.00;87.10;;;;;;10514624;28;20045;-38
2023/09/21 05:52:03;;;;;;;3.53;0.93;;;23.80;87.80;;;;;;10510826;28;20720;-35
2023/09/21 05:57:06;;;;;;;4.68;0.90;;;24.00;86.20;;;;;;10519496;28;20048;-38
2023/09/21 06:02:13;;;;;;;3.15;1.00;;;22.80;84.30;;;;;;10505275;28;20131;-36
2023/09/21 06:07:15;;;;;;;2.40;0.80;;;22.70;92.90;;;;;;10519138;28;20092;-37
2023/09/21 06:12:17;;;;;;;1.85;0.70;;;23.60;85.00;;;;;;10522106;28;20056;-35
2023/09/21 06:17:20;;;;;;;3.25;0.73;;;23.90;86.60;;;;;;10514795;28;20072;-34
2023/09/21 06:22:22;;;;;;;3.08;1.00;;;24.00;85.30;;;;;;10508196;28;20587;-35
2023/09/21 06:27:24;;;;;;;2.13;0.93;;;24.10;84.40;;;;;;10524149;28;20150;-36
2023/09/21 06:32:27;;;;;;;1.33;0.70;;;24.10;83.90;;;;;;10499953;28;20041;-36
2023/09/21 06:37:30;;;;;;;1.52;0.52;;;24.10;83.60;;;;;;10516292;28;20461;-36
2023/09/21 06:42:32;;;;;;;3.83;0.65;;;24.20;83.20;;;;;;10525106;28;20036;-35
2023/09/21 06:47:36;;;;;;;2.17;0.50;;;24.10;83.00;;;;;;10519051;28;20873;-39
2023/09/21 06:52:38;;;;;;;1.25;0.52;;;24.10;83.00;;;;;;10523798;28;20143;-35
2023/09/21 06:57:40;;;;;;;;;;;24.10;82.90;;;;;;10508948;28;20047;-35
2023/09/21 07:02:44;;;;;;;1.55;0.80;;;24.20;83.60;;;;;;10517692;28;19924;-34
2023/09/21 07:07:46;;;;;;;1.73;0.60;;;24.20;84.10;;;;;;10522680;28;20052;-36
2023/09/21 07:12:47;;;;;;;2.00;0.70;;;24.20;84.70;;;;;;10514778;28;20144;-41
2023/09/21 07:17:51;;;;;;;2.08;0.50;;;24.20;84.50;;;;;;10522002;28;20132;-38
2023/09/21 07:22:53;;;;;;;1.88;0.55;;;24.20;84.50;;;;;;10511299;28;20043;-37
2023/09/21 07:27:57;;;;;;;0.98;0.52;;;24.20;84.90;;;;;;10527007;28;20048;-40
2023/09/21 07:33:01;;;;;;;2.50;0.57;;;24.20;84.90;;;;;;10512835;28;20052;-34
2023/09/21 07:38:03;;;;;;;4.03;0.70;;;24.20;85.00;;;;;;10504993;28;20040;-36
2023/09/21 07:43:06;;;;;;;4.30;0.50;;;24.20;85.50;;;;;;10505930;28;20040;-35
2023/09/21 07:48:09;;;;;;;1.95;0.60;;;24.20;85.10;;;;;;10516577;28;20041;-36
2023/09/21 07:53:11;;;;;;;3.00;0.57;;;24.20;85.40;;;;;;10518726;28;20044;-32
2023/09/21 07:58:13;;;;;;;;;;;24.30;85.30;;;;;;10532541;28;20048;-35
2023/09/21 08:03:16;;;;;;;1.45;0.90;;;24.30;85.30;;;;;;10535510;28;19924;-40
2023/09/21 08:08:18;;;;;;;1.95;0.60;;;24.30;85.50;;;;;;10532030;28;20637;-37
2023/09/21 08:13:21;;;;;;;;;;;24.30;85.00;;;;;;10528550;28;20589;-35
2023/09/21 08:18:24;;;;;;;;;;;24.30;85.20;;;;;;10532242;28;20007;-38
2023/09/21 08:23:26;;;;;;;2.20;1.02;;;24.30;85.50;;;;;;10526455;28;19963;-37
2023/09/21 08:28:27;;;;;;;;;;;24.30;85.20;;;;;;10514401;28;20218;-35
2023/09/21 08:33:31;;;;;;;3.80;0.90;;;24.30;85.20;;;;;;10516613;28;19926;-35
2023/09/21 08:38:33;;;;;;;4.85;1.00;;;24.30;84.80;;;;;;10522664;28;20047;-36
2023/09/21 08:43:36;;;;;;;1.23;0.75;;;24.30;84.80;;;;;;10519067;28;20075;-38
2023/09/21 08:48:40;;;;;;;3.10;0.80;;;24.30;84.90;;;;;;10526564;28;20068;-37
2023/09/21 08:53:46;;;;;;;2.55;1.10;;;24.30;84.80;;;;;;10508273;28;20624;-39
2023/09/21 08:58:50;;;;;;;2.30;0.70;;;24.30;85.10;;;;;;10522942;28;20051;-34
2023/09/21 09:03:53;;;;;;;2.45;0.98;;;24.30;84.80;;;;;;10517998;28;20056;-37
2023/09/21 09:08:56;;;;;;;4.80;0.77;;;24.30;84.50;;;;;;10498592;28;20051;-36
2023/09/21 09:13:58;;;;;;;1.70;0.82;;;24.10;85.60;;;;;;10532508;28;20151;-36
2023/09/21 09:19:05;;;;;;;;;;;24.20;85.50;;;;;;10518736;28;20566;-33
2023/09/21 09:24:08;;;;;;;4.50;0.80;;;24.10;85.30;;;;;;10518990;28;19955;-38
2023/09/21 09:29:12;;;;;;;2.67;0.57;;;24.20;85.10;;;;;;10523668;28;20051;-32
2023/09/21 09:34:17;;;;;;;2.85;0.70;;;23.40;90.00;;;;;;10513172;28;20083;-37
2023/09/21 09:39:19;;;;;;;3.85;1.00;;;22.50;94.90;;;;;;10514935;28;20466;-35
2023/09/21 09:44:23;;;;;;;4.65;0.90;;;22.10;95.80;;;;;;10525883;28;20135;-37
2023/09/21 09:49:28;;;;;;;1.58;0.70;;;22.80;93.00;;;;;;10521598;28;20075;-39
2023/09/21 09:54:32;;;;;;;3.35;1.00;;;23.90;87.50;;;;;;10516041;28;20560;-34
2023/09/21 09:59:35;;;;;;;2.28;0.73;;;24.00;85.80;;;;;;10518923;28;20054;-32
2023/09/21 10:04:40;;;;;;;1.48;0.70;;;24.10;84.70;;;;;;10527569;28;20119;-35
2023/09/21 10:09:45;;;;;;;2.33;1.02;;;24.20;84.10;;;;;;10532047;28;20036;-36
2023/09/21 10:14:50;;;;;;;2.10;0.70;;;24.20;83.80;;;;;;10521977;28;20087;-35
2023/09/21 10:20:14;;;;;;;1.85;0.93;;;24.20;83.70;;;;;;10523046;28;20688;-36
2023/09/21 10:25:21;;;;;;;2.55;0.93;;;24.30;83.80;;;;;;10506548;28;20064;-34
2023/09/21 10:30:25;;;;;;;4.15;1.42;;;24.30;83.80;;;;;;10520243;28;20075;-37
2023/09/21 10:40:57;;;;;;;3.38;1.25;;;24.30;83.80;;;;;;10555967;27;20768;-37
2023/09/21 10:46:01;;;;;;;1.27;0.70;;;24.30;83.80;;;;;;10560307;28;20043;-33
2023/09/21 10:51:06;;;;;;;2.70;0.90;;;24.30;83.90;;;;;;10554903;28;20040;-33
2023/09/21 10:56:09;;;;;;;3.17;1.20;;;24.30;83.60;;;;;;10557161;28;20471;-35
2023/09/21 11:01:11;;;;;;;4.60;1.25;;;24.30;83.30;;;;;;10562828;28;20043;-35
2023/09/21 11:06:16;;;;;;;1.70;0.60;;;24.30;82.60;;;;;;10559203;28;20139;-35
2023/09/21 11:11:19;;;;;;;1.80;0.80;;;24.30;82.30;;;;;;10549103;28;20048;-35
2023/09/21 11:16:22;;;;;;;2.63;1.30;;;24.30;81.60;;;;;;10562740;28;20040;-35
2023/09/21 11:21:24;;;;;;;2.85;1.13;;;24.30;80.80;;;;;;10548851;28;20089;-39
2023/09/21 11:26:28;;;;;;;3.78;1.27;;;24.30;80.50;;;;;;10556247;28;20101;-35
2023/09/21 11:31:30;;;;;;;1.23;0.88;;;24.30;80.10;;;;;;10552824;28;20143;-34
2023/09/21 11:36:32;;;;;;;4.50;1.40;;;24.30;79.70;;;;;;10561428;28;20052;-38
2023/09/21 11:41:36;;;;;;;2.30;1.05;;;24.30;79.60;;;;;;10561393;28;20062;-37
2023/09/21 11:46:43;;;;;;;2.08;0.82;;;24.30;79.80;;;;;;10571468;28;20087;-33
2023/09/21 11:51:46;;;;;;;2.28;1.10;;;24.30;79.50;;;;;;10544421;28;20385;-35
2023/09/21 11:56:49;;;;;;;;;;;24.30;79.30;;;;;;10532412;28;20154;-34
2023/09/21 12:01:51;;;;;;;2.40;1.20;;;24.30;79.30;;;;;;10528960;28;19966;-35
2023/09/21 12:06:54;;;;;;;3.78;1.30;;;24.30;79.10;;;;;;10541021;28;20040;-37
2023/09/21 12:11:58;;;;;;;2.67;1.23;;;24.30;79.30;;;;;;10547686;28;20130;-34
2023/09/21 12:17:03;;;;;;;3.58;1.20;;;24.30;79.20;;;;;;10532138;28;20139;-37
2023/09/21 12:22:06;;;;;;;1.67;1.10;;;24.30;79.20;;;;;;10520517;28;20051;-34
2023/09/21 12:27:10;;;;;;;2.13;1.10;;;24.30;79.20;;;;;;10535629;28;20040;-33
2023/09/21 12:32:12;;;;;;;1.75;1.10;;;24.30;79.10;;;;;;10533259;28;20052;-31
2023/09/21 12:37:14;;;;;;;2.10;1.30;;;24.30;79.00;;;;;;10541324;28;20190;-37
2023/09/21 12:42:19;;;;;;;3.67;1.55;;;24.30;78.50;;;;;;10517388;28;20162;-37
2023/09/21 12:47:21;;;;;;;8.13;1.20;;;24.30;78.70;;;;;;10527422;28;20528;-32
2023/09/21 12:52:22;;;;;;;;;;;24.30;78.40;;;;;;10523551;28;20060;-37
2023/09/21 12:57:27;;;;;;;2.03;0.63;;;24.40;79.20;;;;;;10537055;28;20093;-36
2023/09/21 13:02:30;;;;;;;1.88;0.98;;;24.30;78.90;;;;;;10528865;28;20597;-40
2023/09/21 13:07:32;;;;;;;4.68;1.42;;;24.40;78.50;;;;;;10519354;28;20121;-33
2023/09/21 13:12:37;;;;;;;3.10;1.40;;;24.30;78.50;;;;;;10518249;28;20515;-38
2023/09/21 13:17:39;;;;;;;3.17;1.48;;;24.40;78.70;;;;;;10513235;28;20072;-33
2023/09/21 13:22:41;;;;;;;3.00;1.45;;;24.30;78.70;;;;;;10527319;28;20131;-41
2023/09/21 13:27:47;;;;;;;2.15;1.08;;;24.40;78.80;;;;;;10535347;28;20134;-36
2023/09/21 13:32:49;;;;;;;3.28;1.40;;;24.40;79.20;;;;;;10527285;28;20091;-36
2023/09/21 13:37:51;;;;;;;1.58;0.77;;;24.40;79.30;;;;;;10521911;28;20048;-34
2023/09/21 13:42:54;;;;;;;2.92;1.20;;;24.40;79.20;;;;;;10519165;28;20145;-38
2023/09/21 13:47:56;;;;;;;2.53;0.98;;;24.40;79.20;;;;;;10532449;27;20051;-40
2023/09/21 13:52:58;;;;;;;;;;;24.40;78.90;;;;;;10525854;28;20053;-33
2023/09/21 13:58:01;;;;;;;;;;;24.30;78.90;;;;;;10520852;28;19931;-40
2023/09/21 14:03:03;;;;;;;2.03;0.90;;;24.40;79.20;;;;;;10515729;28;19924;-35
2023/09/21 14:08:09;;;;;;;4.22;1.27;;;24.30;79.10;;;;;;10519973;28;20132;-34
2023/09/21 14:13:13;;;;;;;1.15;0.80;;;24.40;79.00;;;;;;10512756;28;20044;-35
2023/09/21 14:18:17;;;;;;;1.50;1.10;;;24.40;78.90;;;;;;10527437;28;20044;-36
2023/09/21 14:23:18;;;;;;;3.08;1.27;;;24.40;79.00;;;;;;10516750;28;20044;-37
2023/09/21 14:28:23;;;;;;;2.92;1.08;;;24.40;79.00;;;;;;10523176;28;20044;-38
2023/09/21 14:33:26;;;;;;;2.15;1.00;;;24.40;78.80;;;;;;10527178;28;20044;-35
2023/09/21 14:38:27;;;;;;;3.90;1.40;;;24.40;79.20;;;;;;10525457;28;20409;-34
2023/09/21 14:43:30;;;;;;;;;;;24.40;79.30;;;;;;10520595;28;20052;-39
2023/09/21 14:48:32;;;;;;;2.17;1.20;;;24.50;79.60;;;;;;10524922;28;19920;-39
2023/09/21 14:53:34;;;;;;;2.58;0.93;;;24.50;79.70;;;;;;10523599;28;20052;-39
2023/09/21 14:58:37;;;;;;;;;;;24.40;79.60;;;;;;10538512;28;20593;-33
2023/09/21 15:03:39;;;;;;;2.00;0.80;;;24.40;79.80;;;;;;10529254;28;19931;-35
2023/09/21 15:08:41;;;;;;;;;;;24.40;79.80;;;;;;10532480;28;20424;-33
2023/09/21 15:13:44;;;;;;;2.70;0.77;;;24.40;80.00;;;;;;10514092;28;19975;-40
2023/09/21 15:18:53;;;;;;;1.13;0.80;;;24.40;80.00;;;;;;10515433;28;20051;-33
2023/09/21 15:23:58;;;;;;;5.15;1.50;;;24.40;80.10;;;;;;10525998;28;20040;-36
2023/09/21 15:29:02;;;;;;;2.78;0.75;;;24.40;80.20;;;;;;10523123;28;20044;-36
2023/09/21 15:34:04;;;;;;;0.85;0.70;;;24.40;80.30;;;;;;10526137;28;20048;-36
2023/09/21 15:39:07;;;;;;;0.93;0.60;;;24.40;80.20;;;;;;10516179;28;20186;-41
2023/09/21 15:44:10;;;;;;;1.55;0.65;;;24.40;80.30;;;;;;10530367;28;20059;-32
2023/09/21 15:49:12;;;;;;;1.10;0.50;;;24.40;80.40;;;;;;10526284;28;20063;-33
2023/09/21 15:54:15;;;;;;;;;;;24.40;80.10;;;;;;10528432;28;20105;-37
2023/09/21 15:59:18;;;;;;;2.83;0.65;;;24.30;80.20;;;;;;10524399;28;20015;-38
2023/09/21 16:04:20;;;;;;;6.50;0.60;;;24.30;80.00;;;;;;10525129;28;20060;-37
2023/09/21 16:09:22;;;;;;;0.65;0.45;;;24.30;80.00;;;;;;10527456;28;20101;-37
2023/09/21 16:14:25;;;;;;;;;;;24.30;79.70;;;;;;10527822;28;20136;-34
2023/09/21 16:19:27;;;;;;;2.22;0.95;;;24.20;79.40;;;;;;10523374;28;20321;-37
2023/09/21 16:24:30;;;;;;;1.42;0.93;;;24.20;79.50;;;;;;10535931;28;20824;-37
2023/09/21 16:29:34;;;;;;;2.28;1.00;;;24.30;79.50;;;;;;10531281;28;20487;-35
2023/09/21 16:34:36;;;;;;;2.13;1.30;;;24.10;78.90;;;;;;10530856;28;20051;-34
2023/09/21 16:39:38;;;;;;;;;;;24.20;79.80;;;;;;10516613;28;20056;-36
2023/09/21 16:44:41;;;;;;;2.63;1.00;;;24.20;79.30;;;;;;10525767;28;20384;-33
2023/09/21 16:49:43;;;;;;;1.85;1.33;;;24.20;79.40;;;;;;10542486;28;20051;-33
2023/09/21 16:54:45;;;;;;;2.35;1.15;;;24.20;79.40;;;;;;10512882;28;20043;-40
2023/09/21 16:59:48;;;;;;;;;;;24.20;79.60;;;;;;10525243;28;20101;-36
2023/09/21 17:04:50;;;;;;;2.13;1.27;;;24.20;79.60;;;;;;10525564;28;19923;-38
2023/09/21 17:09:52;;;;;;;5.63;1.50;;;24.20;79.50;;;;;;10531838;28;20046;-39
2023/09/21 17:14:55;;;;;;;6.25;1.50;;;24.20;79.60;;;;;;10531458;28;20140;-42
2023/09/21 17:19:57;;;;;;;3.65;1.52;;;24.20;79.70;;;;;;10515038;28;20117;-34
2023/09/21 17:24:59;;;;;;;;;;;24.20;79.90;;;;;;10518052;28;20132;-35
2023/09/21 17:30:03;;;;;;;2.58;1.70;;;24.20;79.80;;;;;;10525400;28;19934;-38
2023/09/21 17:35:07;;;;;;;2.53;1.60;;;24.20;79.70;;;;;;10507088;28;20040;-38
2023/09/21 17:40:11;;;;;;;4.38;1.92;;;24.10;79.30;;;;;;10521829;28;20060;-38
2023/09/21 17:45:14;;;;;;;3.95;1.80;;;24.00;79.30;;;;;;10514115;28;20132;-38
2023/09/21 17:50:17;;;;;;;4.93;2.15;;;24.00;79.60;;;;;;10515380;28;20083;-37
2023/09/21 17:55:19;;;;;;;4.97;2.30;;;24.10;79.60;;;;;;10516390;28;20830;-36
2023/09/21 18:00:22;;;;;;;;;;;24.10;79.90;;;;;;10520699;28;20163;-40
2023/09/21 18:05:24;;;;;;;2.00;1.63;;;24.10;81.00;;;;;;10516844;28;20016;-35
2023/09/21 18:10:26;;;;;;;;;;;24.10;81.20;;;;;;10526047;28;20047;-37
2023/09/21 18:15:29;;;;;;;5.30;1.48;;;24.10;81.50;;;;;;10525472;28;19928;-35
2023/09/21 18:20:31;;;;;;;3.72;1.60;;;24.10;81.60;;;;;;10527018;28;20075;-36
2023/09/21 18:25:33;;;;;;;3.92;1.52;;;24.10;81.80;;;;;;10531096;28;20162;-39
2023/09/21 18:30:37;;;;;;;2.83;1.92;;;24.00;82.50;;;;;;10531777;28;20044;-31
2023/09/21 18:35:39;;;;;;;2.55;1.25;;;22.50;90.30;;;;;;10521641;28;20151;-32
2023/09/21 18:40:45;;;;;;;3.40;1.02;;;21.00;96.90;;;;;;10509717;28;20066;-35
2023/09/21 18:45:48;;;;;;;2.78;1.23;;;21.10;99.00;;;;;;10526907;28;20066;-36
2023/09/21 18:50:50;;;;;;;3.90;0.93;;;21.90;95.20;;;;;;10512150;28;20545;-36
2023/09/21 18:55:52;;;;;;;4.72;1.10;;;22.90;93.10;;;;;;10521469;28;20047;-35
2023/09/21 19:00:55;;;;;;;3.03;1.10;;;22.20;93.60;;;;;;10525213;28;20877;-38
2023/09/21 19:05:57;;;;;;;6.40;1.10;;;22.20;95.70;;;;;;10532068;28;20093;-34
2023/09/21 19:11:02;;;;;;;;;;;23.00;92.70;;;;;;10521772;28;20078;-36
2023/09/21 19:16:05;;;;;;;4.05;1.00;;;23.20;92.20;;;;;;10527218;28;20335;-37
2023/09/21 19:21:08;;;;;;;4.47;1.30;;;23.10;89.80;;;;;;10533541;28;20048;-37
2023/09/21 19:26:11;;;;;;;4.10;1.30;;;23.60;90.60;;;;;;10515505;28;20390;-36
2023/09/21 19:31:15;;;;;;;2.17;1.25;;;23.60;90.00;;;;;;10513344;28;20086;-37
2023/09/21 19:36:16;;;;;;;3.35;1.38;;;23.80;88.00;;;;;;10526206;28;20048;-37
2023/09/21 19:41:18;;;;;;;;;;;23.80;87.50;;;;;;10518369;28;20162;-45
2023/09/21 19:46:21;;;;;;;6.68;1.60;;;23.80;87.00;;;;;;10532907;28;19927;-43
2023/09/21 19:51:24;;;;;;;2.60;1.23;;;23.80;86.30;;;;;;10529342;28;20101;-40
2023/09/21 19:56:26;;;;;;;5.88;1.58;;;23.80;85.90;;;;;;10525240;28;20486;-37
2023/09/21 20:01:29;;;;;;;3.00;1.48;;;23.80;85.80;;;;;;10522904;28;20536;-38
2023/09/21 20:06:32;;;;;;;5.80;1.77;;;23.80;86.40;;;;;;10525520;28;20058;-34
2023/09/21 20:11:34;;;;;;;4.95;1.92;;;23.80;87.10;;;;;;10519448;28;20064;-34
2023/09/21 20:16:37;;;;;;;3.35;1.58;;;23.80;86.70;;;;;;10523910;28;20070;-35
2023/09/21 20:21:39;;;;;;;3.03;1.70;;;23.80;87.00;;;;;;10522459;28;20051;-36
2023/09/21 20:26:41;;;;;;;;;;;23.80;89.60;;;;;;10534698;28;20552;-37
2023/09/21 20:31:44;;;;;;;4.60;1.90;;;23.80;90.60;;;;;;10528462;28;20387;-36
2023/09/21 20:36:47;;;;;;;4.45;1.55;;;23.80;90.90;;;;;;10527051;28;20078;-39
2023/09/21 20:41:52;;;;;;;6.97;1.73;;;23.80;91.40;;;;;;10514322;28;20103;-39
2023/09/21 20:46:55;;;;;;;6.97;1.63;;;23.80;91.60;;;;;;10525153;28;20405;-38
2023/09/21 20:51:57;;;;;;;9.82;1.83;;;23.80;91.50;;;;;;10518381;28;20056;-33
2023/09/21 20:57:00;;;;;;;6.43;1.95;;;23.80;91.30;;;;;;10521300;28;20050;-36
2023/09/21 21:02:03;;;;;;;3.80;1.40;;;23.80;91.20;;;;;;10521887;28;20059;-37
2023/09/21 21:07:05;;;;;;;6.63;1.83;;;23.70;91.10;;;;;;10525362;28;20480;-37
2023/09/21 21:12:07;;;;;;;5.50;1.75;;;23.80;90.80;;;;;;10524213;28;20061;-33
2023/09/21 21:17:10;;;;;;;;;;;23.70;90.90;;;;;;10537043;28;20056;-36
2023/09/21 21:22:12;;;;;;;2.58;1.20;;;23.70;90.80;;;;;;10517371;28;20349;-33
2023/09/21 21:27:14;;;;;;;;;;;23.70;90.70;;;;;;10534798;28;20064;-38
2023/09/21 21:32:17;;;;;;;3.33;1.30;;;23.70;90.70;;;;;;10522256;28;20015;-34
2023/09/21 21:37:19;;;;;;;2.70;1.27;;;23.70;90.60;;;;;;10539867;28;20580;-41
2023/09/21 21:42:21;;;;;;;2.92;1.45;;;23.70;90.60;;;;;;10523119;28;20045;-32
2023/09/21 21:47:25;;;;;;;;;;;23.70;90.50;;;;;;10508950;28;20040;-38
2023/09/21 21:52:28;;;;;;;3.90;1.55;;;23.70;90.50;;;;;;10523859;28;19924;-36
2023/09/21 21:57:29;;;;;;;3.03;1.30;;;23.70;90.40;;;;;;10514069;28;20047;-40
2023/09/21 22:02:33;;;;;;;3.97;1.52;;;23.60;90.30;;;;;;10527426;28;20048;-39
2023/09/21 22:07:35;;;;;;;5.20;1.92;;;23.60;90.60;;;;;;10524865;28;20050;-34
2023/09/21 22:12:37;;;;;;;6.22;1.88;;;23.60;90.30;;;;;;10526856;28;20101;-35
2023/09/21 22:17:40;;;;;;;;;;;23.70;90.20;;;;;;10530764;28;20140;-33
2023/09/21 22:22:43;;;;;;;2.50;1.42;;;23.60;90.20;;;;;;10523761;28;19959;-39
2023/09/21 22:27:46;;;;;;;3.50;1.00;;;23.60;90.40;;;;;;10540267;28;20083;-36
2023/09/21 22:32:49;;;;;;;5.40;1.52;;;23.60;90.10;;;;;;10539111;28;20043;-37
2023/09/21 22:37:51;;;;;;;4.82;1.50;;;23.60;90.00;;;;;;10528458;28;20113;-33
2023/09/21 22:42:53;;;;;;;5.43;1.20;;;23.60;90.00;;;;;;10539210;28;20466;-36
2023/09/21 22:47:57;;;;;;;5.22;1.65;;;23.60;89.70;;;;;;10539176;28;20068;-34
2023/09/21 22:52:58;;;;;;;3.60;1.45;;;23.50;89.90;;;;;;10542359;28;20047;-38
2023/09/21 22:58:00;;;;;;;6.32;1.63;;;23.50;90.20;;;;;;10542662;28;20148;-34
2023/09/21 23:03:04;;;;;;;;;;;23.40;90.10;;;;;;10544083;28;20181;-33
2023/09/21 23:08:08;;;;;;;3.50;1.42;;;23.40;85.60;;;;;;10523918;28;19959;-34
2023/09/21 23:13:10;;;;;;;1.98;1.17;;;23.40;90.10;;;;;;10515749;28;20048;-35
2023/09/21 23:18:14;;;;;;;1.88;1.38;;;23.50;89.90;;;;;;10521631;28;20072;-40
2023/09/21 23:23:16;;;;;;;1.55;1.13;;;23.10;90.20;;;;;;10523432;28;20112;-34
2023/09/21 23:28:20;;;;;;;2.88;1.70;;;23.10;85.50;;;;;;10511896;28;20552;-34
2023/09/21 23:33:24;;;;;;;5.68;1.58;;;22.80;90.90;;;;;;10504622;28;20581;-39
2023/09/21 23:38:28;;;;;;;4.32;1.65;;;22.90;91.10;;;;;;10514054;28;20052;-32
2023/09/21 23:43:29;;;;;;;2.60;1.23;;;23.10;89.80;;;;;;10515244;28;20510;-33
2023/09/21 23:48:32;;;;;;;8.32;2.50;;;23.20;90.10;;;;;;10539872;28;20540;-34
2023/09/21 23:53:35;;;;;;;2.95;1.45;;;23.10;88.70;;;;;;10523262;28;20047;-35
2023/09/21 23:58:37;;;;;;;1.70;1.08;;;23.30;89.20;;;;;;10546614;28;20051;-30
